Time;durP1;ratioP1;P1;durP2;ratioP2;P2;SDS_P1;SDS_P2;PMS_P1;PMS_P2;Temp;Humidity;BMP_temperature;BMP_pressure;BME280_temperature;BME280_humidity;BME280_pressure;Samples;Min_cycle;Max_cycle;Signal;HPM_P1;HPM_P2
2021/08/05 00:00:42;;;;;;;28.08;25.38;;;18.20;89.00;;;;;;5072366;28;20415;-82
2021/08/05 00:03:07;;;;;;;26.80;24.08;;;18.20;89.20;;;;;;5072293;28;20037;-81
2021/08/05 00:05:33;;;;;;;28.30;25.42;;;18.20;89.30;;;;;;5072419;28;20124;-82
2021/08/05 00:07:59;;;;;;;30.48;27.30;;;18.20;89.50;;;;;;5072256;28;20053;-81
2021/08/05 00:10:25;;;;;;;31.02;27.77;;;18.20;89.50;;;;;;5072168;28;20064;-81
2021/08/05 00:12:51;;;;;;;26.83;24.23;;;18.20;89.50;;;;;;5073665;28;20024;-82
2021/08/05 00:15:16;;;;;;;32.33;29.13;;;18.20;89.70;;;;;;5073023;28;20082;-82
2021/08/05 00:17:42;;;;;;;31.02;28.05;;;18.20;89.60;;;;;;5073627;28;20081;-82
2021/08/05 00:20:08;;;;;;;29.70;26.65;;;18.20;89.50;;;;;;5073460;28;20423;-82
2021/08/05 00:22:34;;;;;;;31.75;28.40;;;18.20;89.60;;;;;;5072258;28;20040;-81
2021/08/05 00:24:59;;;;;;;30.35;27.48;;;18.20;89.40;;;;;;5088931;28;20028;-82
2021/08/05 00:27:25;;;;;;;28.63;25.83;;;18.20;89.30;;;;;;5054670;28;20032;-81
2021/08/05 00:29:51;;;;;;;29.60;26.80;;;18.20;89.30;;;;;;5072158;28;20119;-81
2021/08/05 00:32:16;;;;;;;29.48;26.55;;;18.20;89.30;;;;;;5068233;28;20382;-82
2021/08/05 00:34:42;;;;;;;29.23;26.38;;;18.10;89.30;;;;;;5052108;28;20078;-82
2021/08/05 00:37:08;;;;;;;30.63;27.52;;;18.10;89.20;;;;;;5070060;28;20032;-81
2021/08/05 00:39:33;;;;;;;29.10;26.23;;;18.10;89.20;;;;;;5073060;28;20024;-81
2021/08/05 00:41:59;;;;;;;28.30;25.10;;;18.00;89.20;;;;;;5071892;28;20431;-82
2021/08/05 00:44:24;;;;;;;28.42;25.63;;;18.00;89.20;;;;;;5073075;28;20029;-81
2021/08/05 00:46:50;;;;;;;28.92;26.00;;;18.00;89.30;;;;;;5071951;28;20384;-82
2021/08/05 00:49:16;;;;;;;32.15;28.77;;;18.00;89.30;;;;;;5073232;28;20056;-81
2021/08/05 00:51:42;;;;;;;33.45;30.17;;;17.90;89.90;;;;;;5071851;28;20024;-82
2021/08/05 00:54:08;;;;;;;33.38;30.17;;;17.90;89.40;;;;;;5072941;28;20028;-81
2021/08/05 00:56:34;;;;;;;31.98;28.80;;;17.90;89.60;;;;;;5071660;28;20453;-82
2021/08/05 00:58:59;;;;;;;32.88;29.60;;;17.80;89.60;;;;;;5073179;28;20048;-81
2021/08/05 01:01:34;;;;;;;33.55;30.27;;;17.90;89.60;;;;;;5071682;28;20029;-81
2021/08/05 01:04:00;;;;;;;31.50;28.45;;;17.80;89.60;;;;;;5072144;28;20360;-81
2021/08/05 01:06:34;;;;;;;34.60;30.83;;;17.80;89.60;;;;;;5072226;28;20032;-81
2021/08/05 01:09:10;;;;;;;31.58;28.45;;;17.80;89.70;;;;;;5059868;28;20044;-81
2021/08/05 01:11:43;;;;;;;32.55;29.25;;;17.70;89.70;;;;;;5061545;28;20361;-81
2021/08/05 01:14:15;;;;;;;36.25;32.55;;;17.70;89.80;;;;;;5072724;28;20099;-81
2021/08/05 01:16:44;;;;;;;35.55;31.98;;;17.70;89.90;;;;;;5052846;28;20547;-81
2021/08/05 01:19:22;;;;;;;36.53;32.83;;;17.60;90.10;;;;;;5053009;28;20052;-81
2021/08/05 01:22:00;;;;;;;36.13;32.00;;;17.60;90.20;;;;;;5052774;28;20025;-81
2021/08/05 01:24:29;;;;;;;33.92;30.55;;;17.60;90.20;;;;;;5058037;28;20021;-81
2021/08/05 01:26:58;;;;;;;35.17;31.63;;;17.60;90.10;;;;;;5071333;28;20043;-81
2021/08/05 01:29:24;;;;;;;33.70;30.15;;;17.60;90.10;;;;;;5072700;28;20052;-81
2021/08/05 01:31:50;;;;;;;33.40;30.08;;;17.60;90.10;;;;;;5072664;28;20060;-81
2021/08/05 01:34:17;;;;;;;34.83;31.42;;;17.60;90.10;;;;;;5072876;28;20070;-81
2021/08/05 01:36:47;;;;;;;36.00;32.28;;;17.60;90.10;;;;;;5072551;28;20028;-81
2021/08/05 01:39:13;;;;;;;35.67;31.98;;;17.50;90.00;;;;;;5073148;28;20027;-81
2021/08/05 01:41:40;;;;;;;33.33;30.05;;;17.50;90.10;;;;;;5076712;28;20021;-81
2021/08/05 01:44:12;;;;;;;34.33;30.75;;;17.60;90.20;;;;;;5055138;28;20474;-81
2021/08/05 01:46:38;;;;;;;30.98;27.98;;;17.50;90.20;;;;;;5073472;28;20040;-81
2021/08/05 01:49:05;;;;;;;33.30;30.15;;;17.50;90.20;;;;;;5076301;28;20028;-82
2021/08/05 01:51:32;;;;;;;36.65;33.05;;;17.50;90.20;;;;;;5074164;28;20489;-81
2021/08/05 01:53:58;;;;;;;36.35;32.95;;;17.60;90.20;;;;;;5075388;28;20048;-81
2021/08/05 01:56:25;;;;;;;30.83;27.73;;;17.60;90.20;;;;;;5073763;28;20033;-81
2021/08/05 01:58:52;;;;;;;34.42;31.13;;;17.50;90.10;;;;;;5075349;28;20021;-81
2021/08/05 02:01:19;;;;;;;34.33;31.02;;;17.50;90.20;;;;;;5087156;28;20035;-81
2021/08/05 02:04:00;;;;;;;35.03;31.65;;;17.60;90.20;;;;;;5075615;28;20635;-81
2021/08/05 02:06:28;;;;;;;34.63;29.65;;;17.50;90.30;;;;;;5076923;28;20041;-81
2021/08/05 02:09:00;;;;;;;33.70;30.30;;;17.50;90.30;;;;;;5074464;28;20074;-81
2021/08/05 02:11:32;;;;;;;33.65;30.23;;;17.50;90.30;;;;;;5074786;28;20040;-81
2021/08/05 02:13:59;;;;;;;35.15;31.70;;;17.40;90.30;;;;;;5074461;28;20024;-81
2021/08/05 02:16:27;;;;;;;34.90;31.50;;;17.40;90.30;;;;;;5058061;28;20566;-81
2021/08/05 02:18:54;;;;;;;32.80;29.30;;;17.40;90.30;;;;;;5075536;28;20036;-81
2021/08/05 02:21:23;;;;;;;32.13;29.02;;;17.50;90.30;;;;;;5074513;28;20131;-81
2021/08/05 02:23:49;;;;;;;;;;;17.40;90.40;;;;;;5066133;28;20040;-81
2021/08/05 02:26:15;;;;;;;31.33;28.23;;;17.40;90.30;;;;;;5074148;28;19914;-81
2021/08/05 02:28:41;;;;;;;32.88;29.48;;;17.40;90.40;;;;;;5072848;28;20036;-81
2021/08/05 02:31:08;;;;;;;32.90;29.80;;;17.40;90.30;;;;;;5074020;28;20032;-81
2021/08/05 02:33:35;;;;;;;31.42;28.23;;;17.40;90.30;;;;;;5073326;28;20040;-81
2021/08/05 02:36:02;;;;;;;33.67;30.55;;;17.40;90.30;;;;;;5074066;28;20067;-81
2021/08/05 02:38:27;;;;;;;29.67;26.80;;;17.30;90.30;;;;;;5075257;28;20075;-81
2021/08/05 02:40:54;;;;;;;31.33;28.25;;;17.30;90.30;;;;;;5073722;28;20036;-81
2021/08/05 02:43:24;;;;;;;31.40;28.10;;;17.30;90.30;;;;;;5074786;28;20037;-81
2021/08/05 02:45:51;;;;;;;31.10;27.48;;;17.30;90.40;;;;;;5074689;28;20056;-81
2021/08/05 02:48:17;;;;;;;27.20;24.13;;;17.30;90.40;;;;;;5074413;28;20025;-81
2021/08/05 02:50:44;;;;;;;26.50;23.90;;;17.30;90.40;;;;;;5072714;28;20035;-81
2021/08/05 02:53:10;;;;;;;26.08;23.52;;;17.30;90.40;;;;;;5074420;28;20028;-81
2021/08/05 02:55:37;;;;;;;24.95;22.58;;;17.20;90.30;;;;;;5072374;28;20103;-81
2021/08/05 02:58:02;;;;;;;26.67;24.05;;;17.30;90.30;;;;;;5070710;28;20063;-82
2021/08/05 03:00:28;;;;;;;22.83;20.52;;;17.20;90.30;;;;;;5074265;28;20092;-81
2021/08/05 03:02:54;;;;;;;24.95;22.48;;;17.20;90.30;;;;;;5072861;28;20040;-81
2021/08/05 03:05:20;;;;;;;27.50;24.80;;;17.20;90.30;;;;;;5072508;28;20401;-81
2021/08/05 03:07:46;;;;;;;28.17;25.45;;;17.20;90.20;;;;;;5073504;28;20040;-81
2021/08/05 03:10:14;;;;;;;24.92;21.23;;;17.20;90.30;;;;;;5085308;28;20029;-81
2021/08/05 03:12:40;;;;;;;26.30;23.80;;;17.10;90.30;;;;;;5066686;28;20024;-81
2021/08/05 03:15:06;;;;;;;26.63;23.90;;;17.20;90.30;;;;;;5074516;28;20044;-81
2021/08/05 03:17:32;;;;;;;27.63;23.88;;;17.20;90.40;;;;;;5074623;28;20042;-81
2021/08/05 03:19:58;;;;;;;28.45;25.73;;;17.20;90.40;;;;;;5074483;28;20026;-81
2021/08/05 03:22:23;;;;;;;26.75;24.15;;;17.20;90.40;;;;;;5074417;28;20029;-81
2021/08/05 03:24:49;;;;;;;26.27;23.88;;;17.20;90.50;;;;;;5074604;28;20028;-81
2021/08/05 03:27:14;;;;;;;24.92;22.60;;;17.20;90.50;;;;;;5074249;28;20048;-82
2021/08/05 03:29:40;;;;;;;27.10;24.52;;;17.10;90.50;;;;;;5074235;28;20082;-81
2021/08/05 03:32:06;;;;;;;25.05;22.58;;;17.20;90.60;;;;;;5074208;28;20043;-81
2021/08/05 03:34:31;;;;;;;25.73;23.23;;;17.10;90.50;;;;;;5073181;28;20035;-81
2021/08/05 03:36:57;;;;;;;24.60;22.30;;;17.20;90.60;;;;;;5056409;28;20020;-81
2021/08/05 03:39:23;;;;;;;26.05;23.58;;;17.20;90.50;;;;;;5073964;28;20158;-81
2021/08/05 03:41:49;;;;;;;24.25;21.73;;;17.20;90.60;;;;;;5073785;28;20468;-81
2021/08/05 03:44:15;;;;;;;24.20;21.85;;;17.20;90.50;;;;;;5074138;28;20031;-81
2021/08/05 03:46:42;;;;;;;23.35;21.08;;;17.20;90.70;;;;;;5072794;28;20027;-81
2021/08/05 03:49:08;;;;;;;26.10;23.35;;;17.10;90.60;;;;;;5074020;28;20548;-81
2021/08/05 03:51:33;;;;;;;26.25;23.75;;;17.10;90.50;;;;;;5073937;28;20089;-81
2021/08/05 03:53:59;;;;;;;24.17;21.88;;;17.10;90.50;;;;;;5073963;28;20103;-81
2021/08/05 03:56:25;;;;;;;25.02;22.42;;;17.10;90.60;;;;;;5073792;28;20064;-81
2021/08/05 03:58:50;;;;;;;24.15;21.70;;;17.10;90.60;;;;;;5072708;28;20040;-81
2021/08/05 04:01:16;;;;;;;26.02;22.90;;;17.10;90.60;;;;;;5073012;28;20436;-81
2021/08/05 04:03:42;;;;;;;25.90;23.33;;;17.10;90.70;;;;;;5058930;28;20040;-82
2021/08/05 04:06:08;;;;;;;26.70;23.65;;;17.10;90.70;;;;;;5061333;28;20481;-81
2021/08/05 04:08:34;;;;;;;26.52;23.92;;;17.10;90.70;;;;;;5071936;28;20049;-81
2021/08/05 04:11:00;;;;;;;25.55;23.15;;;17.10;90.70;;;;;;5073588;28;20024;-81
2021/08/05 04:13:26;;;;;;;25.73;23.33;;;17.10;90.70;;;;;;5055698;28;20127;-81
2021/08/05 04:15:51;;;;;;;25.75;23.15;;;17.10;91.00;;;;;;5072466;28;20029;-81
2021/08/05 04:18:17;;;;;;;26.50;23.65;;;17.10;90.80;;;;;;5073816;28;20033;-81
2021/08/05 04:20:43;;;;;;;27.67;23.83;;;17.10;90.80;;;;;;5055155;28;20397;-81
2021/08/05 04:23:08;;;;;;;26.23;23.73;;;17.10;90.70;;;;;;5073719;28;20037;-81
2021/08/05 04:25:34;;;;;;;23.65;21.33;;;17.10;90.70;;;;;;5073316;28;20029;-81
2021/08/05 04:28:00;;;;;;;25.20;22.80;;;17.10;90.70;;;;;;5071979;28;20020;-81
2021/08/05 04:30:25;;;;;;;26.08;23.33;;;17.10;90.70;;;;;;5072168;28;20039;-81
2021/08/05 04:32:52;;;;;;;25.70;22.95;;;17.10;90.70;;;;;;5072096;28;20027;-81
2021/08/05 04:35:18;;;;;;;31.23;28.13;;;17.10;90.70;;;;;;5071986;28;20032;-81
2021/08/05 04:37:50;;;;;;;28.02;25.13;;;17.10;90.70;;;;;;5072578;28;20028;-81
2021/08/05 04:40:16;;;;;;;33.78;30.27;;;17.00;90.80;;;;;;5073043;28;20035;-81
2021/08/05 04:42:42;;;;;;;33.22;29.63;;;17.10;90.80;;;;;;5073129;28;20025;-81
2021/08/05 04:45:09;;;;;;;32.10;28.98;;;17.00;90.80;;;;;;5073274;28;20362;-81
2021/08/05 04:47:47;;;;;;;36.13;30.63;;;17.00;90.80;;;;;;5071357;28;20051;-81
2021/08/05 04:50:13;;;;;;;;;;;17.10;90.90;;;;;;5056694;28;20024;-81
2021/08/05 04:52:39;;;;;;;33.63;30.23;;;17.00;90.70;;;;;;5072328;28;19915;-81
2021/08/05 04:55:04;;;;;;;31.88;28.58;;;17.00;90.90;;;;;;5070804;28;20427;-81
2021/08/05 04:57:30;;;;;;;36.00;32.17;;;17.00;90.90;;;;;;5051573;28;20025;-81
2021/08/05 04:59:55;;;;;;;33.50;30.20;;;17.00;90.90;;;;;;5072584;28;20043;-81
2021/08/05 05:02:21;;;;;;;34.65;31.15;;;17.10;90.90;;;;;;5071358;28;20074;-81
2021/08/05 05:04:47;;;;;;;37.13;32.65;;;17.10;91.00;;;;;;5072465;28;20033;-81
2021/08/05 05:07:12;;;;;;;35.50;31.73;;;17.10;90.90;;;;;;5054376;28;20035;-81
2021/08/05 05:09:38;;;;;;;35.45;31.63;;;17.10;90.90;;;;;;5072559;28;20029;-81
2021/08/05 05:12:04;;;;;;;31.33;28.10;;;17.10;90.90;;;;;;5067331;28;20493;-81
2021/08/05 05:14:30;;;;;;;35.67;31.85;;;17.10;91.00;;;;;;5075358;28;20025;-81
2021/08/05 05:16:56;;;;;;;33.97;28.48;;;17.20;91.00;;;;;;5075352;28;20473;-81
2021/08/05 05:19:23;;;;;;;35.80;32.05;;;17.10;91.00;;;;;;5076340;28;20032;-81
2021/08/05 05:21:49;;;;;;;39.75;28.95;;;17.20;91.10;;;;;;5076621;28;20029;-81
2021/08/05 05:24:15;;;;;;;30.95;27.85;;;17.20;91.00;;;;;;5080238;28;20094;-81
2021/08/05 05:26:40;;;;;;;31.58;28.38;;;17.30;91.00;;;;;;5080704;28;20033;-81
2021/08/05 05:29:06;;;;;;;30.45;27.33;;;17.30;90.90;;;;;;5058084;28;20031;-81
2021/08/05 05:31:32;;;;;;;29.10;26.35;;;17.40;90.80;;;;;;5076477;28;20028;-81
2021/08/05 05:33:57;;;;;;;30.20;27.20;;;17.50;90.70;;;;;;5092362;28;20532;-82
2021/08/05 05:36:23;;;;;;;31.10;27.80;;;17.60;90.60;;;;;;5069390;28;20068;-81
2021/08/05 05:38:49;;;;;;;33.55;30.02;;;17.70;90.40;;;;;;5076635;28;20031;-83
2021/08/05 05:41:14;;;;;;;38.40;34.30;;;17.80;90.30;;;;;;5076422;28;20085;-81
2021/08/05 05:43:40;;;;;;;34.28;30.77;;;17.80;90.10;;;;;;5074270;28;20032;-80
2021/08/05 05:46:05;;;;;;;27.52;24.80;;;17.90;90.10;;;;;;5074366;28;20036;-80
2021/08/05 05:48:31;;;;;;;30.23;27.23;;;18.00;90.10;;;;;;5075256;28;20032;-80
2021/08/05 05:50:57;;;;;;;35.90;32.30;;;18.00;89.80;;;;;;5074298;28;20029;-80
2021/08/05 05:53:23;;;;;;;36.05;32.13;;;18.00;89.70;;;;;;5075566;28;20053;-80
2021/08/05 05:55:50;;;;;;;34.13;30.73;;;18.00;90.00;;;;;;5078428;28;20051;-80
2021/08/05 05:58:16;;;;;;;35.42;31.63;;;18.00;90.00;;;;;;5075195;28;20779;-80
2021/08/05 06:00:42;;;;;;;34.35;30.10;;;18.00;89.90;;;;;;5074831;28;20119;-80
2021/08/05 06:03:10;;;;;;;35.97;32.35;;;18.00;89.90;;;;;;5058168;28;20040;-80
2021/08/05 06:05:35;;;;;;;35.47;31.77;;;18.00;90.00;;;;;;5042306;28;20032;-80
2021/08/05 06:08:01;;;;;;;32.40;28.98;;;18.10;90.00;;;;;;5057923;28;20056;-79
2021/08/05 06:10:27;;;;;;;39.42;35.42;;;18.10;89.80;;;;;;5074959;28;20032;-80
2021/08/05 06:12:54;;;;;;;39.92;34.50;;;18.10;89.50;;;;;;5074558;28;20041;-79
2021/08/05 06:15:20;;;;;;;41.75;36.20;;;18.20;89.30;;;;;;5054202;28;20025;-79
2021/08/05 06:17:45;;;;;;;37.22;29.35;;;18.20;89.40;;;;;;5055884;28;20036;-79
2021/08/05 06:20:13;;;;;;;38.58;34.33;;;18.20;89.40;;;;;;5063561;28;20027;-80
2021/08/05 06:22:40;;;;;;;38.13;34.13;;;18.30;89.00;;;;;;5075928;28;20025;-79
2021/08/05 06:25:06;;;;;;;37.60;33.85;;;18.30;88.90;;;;;;5074880;28;20094;-79
2021/08/05 06:27:32;;;;;;;41.47;37.05;;;18.40;89.10;;;;;;5075523;28;20032;-80
2021/08/05 06:29:58;;;;;;;42.85;38.47;;;18.40;89.20;;;;;;5074466;28;20025;-79
2021/08/05 06:32:25;;;;;;;41.72;37.65;;;18.40;89.20;;;;;;5075504;28;20032;-79
2021/08/05 06:34:50;;;;;;;40.97;36.40;;;18.50;89.00;;;;;;5074598;28;20028;-79
2021/08/05 06:37:16;;;;;;;44.55;39.80;;;18.50;88.80;;;;;;5074290;28;20056;-80
2021/08/05 06:39:41;;;;;;;45.60;39.92;;;18.60;88.90;;;;;;5075298;28;20409;-80
2021/08/05 06:42:07;;;;;;;45.53;40.92;;;18.60;89.00;;;;;;5075292;28;20054;-80
2021/08/05 06:44:35;;;;;;;40.38;36.17;;;18.60;89.10;;;;;;5075178;28;20385;-80
2021/08/05 06:47:05;;;;;;;42.33;38.10;;;18.70;89.10;;;;;;5074045;28;20551;-79
2021/08/05 06:49:31;;;;;;;38.60;34.60;;;18.70;89.00;;;;;;5075212;28;20453;-80
2021/08/05 06:51:56;;;;;;;37.08;33.30;;;18.80;89.60;;;;;;5075113;28;20025;-79
2021/08/05 06:54:22;;;;;;;40.25;36.13;;;18.90;89.00;;;;;;5075287;28;20031;-79
2021/08/05 06:56:48;;;;;;;41.08;36.67;;;18.90;88.50;;;;;;5053655;28;20037;-80
2021/08/05 06:59:14;;;;;;;38.40;34.28;;;19.00;88.30;;;;;;5053969;28;20024;-79
2021/08/05 07:01:40;;;;;;;41.85;35.67;;;19.10;88.10;;;;;;5054966;28;20021;-80
2021/08/05 07:04:06;;;;;;;40.38;36.05;;;19.30;88.00;;;;;;5053952;28;20433;-79
2021/08/05 07:06:31;;;;;;;39.35;35.25;;;19.50;87.90;;;;;;5054102;28;20025;-79
2021/08/05 07:08:57;;;;;;;36.88;33.20;;;19.60;87.20;;;;;;5061923;28;20036;-79
2021/08/05 07:11:22;;;;;;;38.72;34.50;;;19.80;86.20;;;;;;5075237;28;20502;-79
2021/08/05 07:13:48;;;;;;;39.38;35.65;;;20.00;85.70;;;;;;5074555;28;20070;-79
2021/08/05 07:16:14;;;;;;;41.90;37.45;;;20.10;85.40;;;;;;5074749;28;20103;-79
2021/08/05 07:18:39;;;;;;;35.90;32.15;;;20.30;85.20;;;;;;5074739;28;20056;-79
2021/08/05 07:21:05;;;;;;;40.67;36.45;;;20.30;84.70;;;;;;5083262;28;20115;-79
2021/08/05 07:23:31;;;;;;;36.95;31.90;;;20.20;84.10;;;;;;5074531;28;20468;-79
2021/08/05 07:25:56;;;;;;;39.42;35.33;;;20.10;84.80;;;;;;5074930;28;20032;-79
2021/08/05 07:28:22;;;;;;;40.88;36.55;;;20.00;85.20;;;;;;5073385;28;20039;-79
2021/08/05 07:30:49;;;;;;;43.83;39.15;;;19.90;85.30;;;;;;5074506;28;20530;-79
2021/08/05 07:33:14;;;;;;;39.30;35.20;;;19.80;85.90;;;;;;5074520;28;20028;-79
2021/08/05 07:35:40;;;;;;;41.53;37.22;;;19.80;86.00;;;;;;5073541;28;20097;-79
2021/08/05 07:38:06;;;;;;;42.33;38.03;;;19.80;86.20;;;;;;5072881;28;20031;-79
2021/08/05 07:40:31;;;;;;;38.78;34.75;;;19.80;86.40;;;;;;5073015;28;20032;-79
2021/08/05 07:42:57;;;;;;;41.35;37.05;;;19.90;86.40;;;;;;5073079;28;20032;-79
2021/08/05 07:45:23;;;;;;;37.05;33.35;;;19.90;86.10;;;;;;5072794;28;20082;-79
2021/08/05 07:47:48;;;;;;;38.92;34.92;;;20.00;85.90;;;;;;5073254;28;20052;-79
2021/08/05 07:50:14;;;;;;;42.30;37.88;;;20.10;85.10;;;;;;5072874;28;20024;-79
2021/08/05 07:52:41;;;;;;;38.53;34.47;;;20.30;84.40;;;;;;5072803;28;20029;-79
2021/08/05 07:55:08;;;;;;;40.80;36.30;;;20.40;84.20;;;;;;5073722;28;20016;-79
2021/08/05 07:57:34;;;;;;;39.03;35.08;;;20.50;83.70;;;;;;5072683;28;20024;-79
2021/08/05 08:00:01;;;;;;;38.17;34.05;;;20.60;83.60;;;;;;5073829;28;20035;-79
2021/08/05 08:02:27;;;;;;;39.95;35.92;;;20.80;83.20;;;;;;5073636;28;20477;-79
2021/08/05 08:04:53;;;;;;;40.95;35.60;;;20.90;82.40;;;;;;5072463;28;20021;-79
2021/08/05 08:07:19;;;;;;;41.53;36.38;;;20.90;81.90;;;;;;5073230;28;20044;-78
2021/08/05 08:09:44;;;;;;;39.95;35.78;;;20.80;81.60;;;;;;5073804;28;20390;-78
2021/08/05 08:12:10;;;;;;;38.72;34.63;;;20.80;81.40;;;;;;5072252;28;20107;-78
2021/08/05 08:14:36;;;;;;;40.90;35.90;;;20.70;82.00;;;;;;5055539;28;20481;-79
2021/08/05 08:17:01;;;;;;;43.22;38.63;;;20.70;82.30;;;;;;5072528;28;20031;-79
2021/08/05 08:19:28;;;;;;;43.35;38.65;;;20.60;82.10;;;;;;5073514;28;20471;-79
2021/08/05 08:21:53;;;;;;;43.53;37.25;;;20.60;82.40;;;;;;5073468;28;20035;-79
2021/08/05 08:24:21;;;;;;;39.30;35.28;;;20.60;82.60;;;;;;5089089;28;20024;-79
2021/08/05 08:26:47;;;;;;;39.78;35.47;;;20.70;82.80;;;;;;5073329;28;20028;-80
2021/08/05 08:29:12;;;;;;;41.95;37.58;;;20.70;83.10;;;;;;5072093;28;20024;-79
2021/08/05 08:31:38;;;;;;;38.78;34.83;;;20.70;83.10;;;;;;5072223;28;20385;-79
2021/08/05 08:34:03;;;;;;;45.10;36.95;;;20.90;83.00;;;;;;5072146;28;20405;-79
2021/08/05 08:36:29;;;;;;;42.65;38.03;;;21.00;82.70;;;;;;5055219;28;20052;-79
2021/08/05 08:38:55;;;;;;;43.17;36.88;;;21.10;82.40;;;;;;5073225;28;20044;-79
2021/08/05 08:41:21;;;;;;;39.92;35.60;;;21.10;82.20;;;;;;5073091;28;20040;-79
2021/08/05 08:43:47;;;;;;;37.67;33.55;;;21.30;82.70;;;;;;5071905;28;20040;-79
2021/08/05 08:46:19;;;;;;;36.80;33.03;;;21.30;81.70;;;;;;5072754;28;20040;-79
2021/08/05 08:48:45;;;;;;;40.05;33.95;;;21.40;81.20;;;;;;5071369;28;20051;-79
2021/08/05 08:51:11;;;;;;;37.10;32.40;;;21.40;80.30;;;;;;5072806;28;20477;-79
2021/08/05 08:53:39;;;;;;;37.88;33.88;;;21.40;80.60;;;;;;5071145;28;20565;-79
2021/08/05 08:56:06;;;;;;;40.90;36.73;;;21.50;80.00;;;;;;5072385;28;20120;-79
2021/08/05 08:58:32;;;;;;;41.40;36.72;;;21.50;79.60;;;;;;5071270;28;20302;-79
2021/08/05 09:00:57;;;;;;;41.03;36.75;;;21.50;79.80;;;;;;5072182;28;20067;-79
2021/08/05 09:03:23;;;;;;;42.38;35.53;;;21.50;80.10;;;;;;5072399;28;20480;-79
2021/08/05 09:05:49;;;;;;;35.95;31.75;;;21.50;80.20;;;;;;5072377;28;20488;-79
2021/08/05 09:08:14;;;;;;;41.00;35.10;;;21.60;80.20;;;;;;5072358;28;20057;-79
2021/08/05 09:10:40;;;;;;;37.67;33.67;;;21.60;80.60;;;;;;5072047;28;20025;-79
2021/08/05 09:13:07;;;;;;;39.83;35.65;;;21.70;79.90;;;;;;5071652;28;20435;-79
2021/08/05 09:15:40;;;;;;;38.25;34.13;;;21.80;79.60;;;;;;5072677;28;20513;-79
2021/08/05 09:18:41;;;;;;;38.80;34.75;;;21.90;79.20;;;;;;5072090;28;20029;-79
2021/08/05 09:21:17;;;;;;;40.80;35.03;;;22.00;79.10;;;;;;5071778;28;20056;-79
2021/08/05 09:24:06;;;;;;;37.70;33.53;;;22.10;78.90;;;;;;5073003;28;20029;-79
2021/08/05 09:26:44;;;;;;;39.08;32.85;;;22.20;79.00;;;;;;5071556;28;20035;-79
2021/08/05 09:29:14;;;;;;;32.03;28.58;;;22.30;77.20;;;;;;5072441;28;20039;-82
2021/08/05 09:31:50;;;;;;;34.55;30.70;;;22.40;76.50;;;;;;5072599;28;20016;-82
2021/08/05 09:34:22;;;;;;;36.75;32.25;;;22.60;76.20;;;;;;5072792;28;20029;-82
2021/08/05 09:36:58;;;;;;;34.05;30.33;;;22.80;75.10;;;;;;5072871;28;20062;-82
2021/08/05 09:39:27;;;;;;;31.95;28.35;;;23.00;73.90;;;;;;5072833;28;20029;-82
2021/08/05 09:42:01;;;;;;;33.88;28.75;;;23.30;74.00;;;;;;5072850;28;20028;-82
2021/08/05 09:44:43;;;;;;;30.08;26.83;;;23.60;73.90;;;;;;5071481;28;20035;-82
2021/08/05 09:47:11;;;;;;;29.92;26.70;;;23.70;71.10;;;;;;5071423;28;20043;-82
2021/08/05 09:49:39;;;;;;;29.30;26.15;;;23.70;69.90;;;;;;5072724;28;20023;-82
2021/08/05 09:52:07;;;;;;;32.22;28.02;;;23.80;69.40;;;;;;5072686;28;20400;-82
2021/08/05 09:54:38;;;;;;;28.73;25.63;;;23.80;70.00;;;;;;5071544;28;20055;-82
2021/08/05 09:57:05;;;;;;;29.27;26.27;;;23.60;69.70;;;;;;5072739;28;20024;-82
2021/08/05 09:59:31;;;;;;;27.55;24.52;;;23.50;70.30;;;;;;5073646;28;20066;-82
2021/08/05 10:02:07;;;;;;;27.58;24.77;;;23.50;69.10;;;;;;5075029;28;20606;-82
2021/08/05 10:04:35;;;;;;;25.35;22.60;;;23.70;69.80;;;;;;5075146;28;20060;-82
2021/08/05 10:07:07;;;;;;;24.00;21.38;;;23.80;69.50;;;;;;5074855;28;20390;-82
2021/08/05 10:09:35;;;;;;;24.40;22.02;;;24.10;69.00;;;;;;5074651;28;20093;-82
2021/08/05 10:12:15;;;;;;;23.23;20.73;;;24.30;68.70;;;;;;5075055;28;20041;-82
2021/08/05 10:14:41;;;;;;;20.42;18.27;;;24.40;66.20;;;;;;5074851;28;20036;-82
2021/08/05 10:17:09;;;;;;;24.30;21.08;;;24.50;66.00;;;;;;5074780;28;20021;-82
2021/08/05 10:19:39;;;;;;;22.35;20.10;;;24.60;65.10;;;;;;5075944;28;20496;-82
2021/08/05 10:22:07;;;;;;;22.30;19.85;;;24.70;65.90;;;;;;5075838;28;20054;-82
2021/08/05 10:24:36;;;;;;;25.10;22.60;;;24.90;66.20;;;;;;5074687;28;20029;-82
2021/08/05 10:27:05;;;;;;;25.85;23.02;;;25.00;66.00;;;;;;5074613;28;20112;-83
2021/08/05 10:29:31;;;;;;;23.00;18.85;;;25.00;65.00;;;;;;5074691;28;20469;-83
2021/08/05 10:31:58;;;;;;;20.33;18.23;;;25.00;65.20;;;;;;5075666;28;20491;-82
2021/08/05 10:34:24;;;;;;;21.38;18.08;;;25.00;63.00;;;;;;5074403;28;20496;-82
2021/08/05 10:36:50;;;;;;;22.75;20.30;;;24.90;63.90;;;;;;5075481;28;20029;-83
2021/08/05 10:39:16;;;;;;;22.17;19.95;;;24.70;63.00;;;;;;5074222;28;20074;-83
2021/08/05 10:41:42;;;;;;;19.38;17.38;;;24.50;64.00;;;;;;5073945;28;20037;-83
2021/08/05 10:44:08;;;;;;;17.83;15.98;;;24.50;65.00;;;;;;5074242;28;20116;-83
2021/08/05 10:46:35;;;;;;;17.25;14.00;;;24.60;63.50;;;;;;5057660;28;20032;-83
2021/08/05 10:49:03;;;;;;;18.23;15.63;;;24.80;61.90;;;;;;5074120;28;20111;-83
2021/08/05 10:51:34;;;;;;;21.85;19.42;;;24.80;61.70;;;;;;5073620;28;20029;-83
2021/08/05 10:53:59;;;;;;;19.27;16.83;;;24.70;62.30;;;;;;5073968;28;20367;-83
2021/08/05 10:56:27;;;;;;;20.55;18.40;;;24.60;63.90;;;;;;5057320;28;20028;-83
2021/08/05 10:59:23;;;;;;;20.70;18.63;;;24.40;64.80;;;;;;5075151;28;20032;-83
2021/08/05 11:01:53;;;;;;;25.17;21.95;;;24.30;65.60;;;;;;5073511;28;20032;-83
2021/08/05 11:04:39;;;;;;;26.08;23.13;;;24.10;66.60;;;;;;5073509;28;20506;-82
2021/08/05 11:07:24;;;;;;;21.08;18.98;;;23.90;66.10;;;;;;5074656;28;20020;-83
2021/08/05 11:09:52;;;;;;;25.10;21.02;;;23.80;67.50;;;;;;5074601;28;20040;-83
2021/08/05 11:12:40;;;;;;;21.35;19.15;;;23.70;68.60;;;;;;5073599;28;20028;-83
2021/08/05 11:15:29;;;;;;;22.75;20.30;;;23.60;68.20;;;;;;5074905;28;20153;-82
2021/08/05 11:18:07;;;;;;;24.50;21.77;;;23.60;68.30;;;;;;5066399;28;20013;-82
2021/08/05 11:20:43;;;;;;;24.20;19.85;;;23.70;67.80;;;;;;5058985;28;20104;-83
2021/08/05 11:23:36;;;;;;;22.60;18.73;;;23.70;68.30;;;;;;5073190;28;20113;-83
2021/08/05 11:26:09;;;;;;;19.27;17.23;;;23.80;65.10;;;;;;5073324;28;20028;-83
2021/08/05 11:28:40;;;;;;;15.98;14.15;;;24.10;63.60;;;;;;5074170;28;20385;-83
2021/08/05 11:31:11;;;;;;;16.60;14.90;;;24.50;62.60;;;;;;5074593;28;20032;-83
2021/08/05 11:33:37;;;;;;;13.38;11.98;;;24.80;61.00;;;;;;5072843;28;20032;-83
2021/08/05 11:36:21;;;;;;;16.60;14.90;;;25.00;61.20;;;;;;5074385;28;20020;-85
2021/08/05 11:39:08;;;;;;;16.13;14.45;;;25.20;60.50;;;;;;5074176;28;20021;-85
2021/08/05 11:41:46;;;;;;;15.18;12.63;;;25.40;59.70;;;;;;5074587;28;20039;-84
2021/08/05 11:44:40;;;;;;;19.02;14.88;;;25.40;60.50;;;;;;5058180;28;20083;-84
2021/08/05 11:47:06;;;;;;;14.85;13.35;;;25.60;58.80;;;;;;5053247;28;20024;-84
2021/08/05 11:49:40;;;;;;;13.90;12.40;;;25.60;58.40;;;;;;5053024;28;20013;-85
2021/08/05 11:52:17;;;;;;;12.52;10.77;;;25.60;58.90;;;;;;5052740;28;20028;-83
2021/08/05 11:55:04;;;;;;;16.77;13.73;;;25.40;59.00;;;;;;5071649;28;20024;-83
2021/08/05 11:57:40;;;;;;;13.80;12.40;;;25.40;58.00;;;;;;5063443;28;20032;-83
2021/08/05 12:00:16;;;;;;;16.77;12.52;;;25.50;58.80;;;;;;5072704;28;20440;-83
2021/08/05 12:02:42;;;;;;;15.63;12.32;;;25.70;59.50;;;;;;5072658;28;20115;-83
2021/08/05 12:05:09;;;;;;;8.95;7.97;;;25.90;58.10;;;;;;5055895;28;20120;-83
2021/08/05 12:07:37;;;;;;;6.65;5.95;;;26.00;56.50;;;;;;5072729;28;20029;-83
2021/08/05 12:10:10;;;;;;;7.38;5.88;;;26.10;55.90;;;;;;5073627;28;20097;-83
2021/08/05 12:12:44;;;;;;;6.80;6.15;;;26.10;55.30;;;;;;5072447;28;20024;-83
2021/08/05 12:15:16;;;;;;;7.78;6.35;;;26.10;54.10;;;;;;5072361;28;20378;-83
2021/08/05 12:17:49;;;;;;;10.52;7.45;;;26.20;55.30;;;;;;5073608;28;20029;-83
2021/08/05 12:20:27;;;;;;;10.68;7.07;;;26.40;55.00;;;;;;5072412;28;20094;-83
2021/08/05 12:22:55;;;;;;;12.13;8.85;;;26.50;56.20;;;;;;5072873;28;20021;-83
2021/08/05 12:25:33;;;;;;;10.35;8.70;;;26.40;55.30;;;;;;5072234;28;20040;-83
2021/08/05 12:28:09;;;;;;;11.57;10.45;;;26.20;56.40;;;;;;5073236;28;20439;-83
2021/08/05 12:30:40;;;;;;;9.50;8.20;;;25.90;57.00;;;;;;5072063;28;20036;-83
2021/08/05 12:33:31;;;;;;;11.93;9.38;;;25.80;58.00;;;;;;5073510;28;20021;-83